createdAt,value
2017-04-14T00:00:37.400Z,1007.11
2017-04-14T00:01:46.363Z,1007.14
2017-04-14T00:02:55.613Z,1007.13
2017-04-14T00:04:04.568Z,1007.16
2017-04-14T00:05:13.843Z,1007.15
2017-04-14T00:06:22.794Z,1007.16
2017-04-14T00:07:31.832Z,1007.19
2017-04-14T00:08:41.043Z,1007.21
2017-04-14T00:09:50.007Z,1007.18
2017-04-14T00:10:58.965Z,1007.18
2017-04-14T00:12:08.008Z,1007.16
2017-04-14T00:13:16.966Z,1007.23
2017-04-14T00:14:26.171Z,1007.13
2017-04-14T00:15:35.124Z,1007.16
2017-04-14T00:16:44.081Z,1007.2
2017-04-14T00:17:53.035Z,1007.19
2017-04-14T00:19:01.996Z,1007.12
2017-04-14T00:20:11.200Z,1007.14
2017-04-14T00:21:20.156Z,1007.2
2017-04-14T00:22:29.115Z,1007.22
2017-04-14T00:23:38.069Z,1007.16
2017-04-14T00:24:47.038Z,1007.15
2017-04-14T00:25:56.240Z,1007.17
2017-04-14T00:27:05.282Z,1007.18
2017-04-14T00:28:14.229Z,1007.12
2017-04-14T00:29:23.187Z,1007.18
2017-04-14T00:30:32.138Z,1007.2
2017-04-14T00:31:41.341Z,1007.15
2017-04-14T00:32:50.291Z,1007.17
2017-04-14T00:33:59.575Z,1007.13
2017-04-14T00:35:08.534Z,1007.12
2017-04-14T00:36:17.567Z,1007.16
2017-04-14T00:37:26.777Z,1007.16
2017-04-14T00:38:35.737Z,1007.14
2017-04-14T00:39:44.691Z,1007.11
2017-04-14T00:40:53.686Z,1007.11
2017-04-14T00:42:02.636Z,1007.16
2017-04-14T00:43:11.893Z,1007.15
2017-04-14T00:44:20.851Z,1007.18
2017-04-14T00:45:29.808Z,1007.15
2017-04-14T00:46:38.762Z,1007.18
2017-04-14T00:47:47.713Z,1007.15
2017-04-14T00:48:57.024Z,1007.17
2017-04-14T00:50:05.983Z,1007.12
2017-04-14T00:51:14.933Z,1007.16
2017-04-14T00:52:23.900Z,1007.16
2017-04-14T00:53:32.855Z,1007.12
2017-04-14T00:54:42.120Z,1007.17
2017-04-14T00:55:51.071Z,1007.11
2017-04-14T00:57:00.022Z,1007.16
2017-04-14T00:58:08.977Z,1007.2
2017-04-14T00:59:17.928Z,1007.18
2017-04-14T01:00:27.125Z,1007.13
2017-04-14T01:01:36.162Z,1007.17
2017-04-14T01:02:45.114Z,1007.17
2017-04-14T01:03:54.396Z,1007.18
2017-04-14T01:05:03.348Z,1007.15
2017-04-14T01:06:12.595Z,1007.11
2017-04-14T01:07:21.550Z,1007.14
2017-04-14T01:08:30.510Z,1007.13
2017-04-14T01:09:39.796Z,1007.1
2017-04-14T01:10:48.747Z,1007.09
2017-04-14T01:11:57.946Z,1007.07
2017-04-14T01:13:06.894Z,1007.09
2017-04-14T01:14:15.844Z,1007.06
2017-04-14T01:15:24.804Z,1007.08
2017-04-14T01:16:33.765Z,1007.03
2017-04-14T01:17:42.968Z,1007.1
2017-04-14T01:18:51.924Z,1007.05
2017-04-14T01:20:00.882Z,1007.06
2017-04-14T01:21:09.830Z,1007.02
2017-04-14T01:22:19.128Z,1007.01
2017-04-14T01:23:28.333Z,1007.06
2017-04-14T01:24:37.282Z,1007.06
2017-04-14T01:25:46.235Z,1007.02
2017-04-14T01:26:55.187Z,1007.05
2017-04-14T01:28:04.146Z,1007.02
2017-04-14T01:29:13.676Z,1007.01
2017-04-14T01:30:22.632Z,1007.02
2017-04-14T01:31:31.590Z,1007.04
2017-04-14T01:32:40.535Z,1007.03
2017-04-14T01:33:49.489Z,1007.05
2017-04-14T01:34:59.085Z,1007.04
2017-04-14T01:36:08.036Z,1007.07
2017-04-14T01:37:17.083Z,1007.02
2017-04-14T01:38:26.033Z,1007.05
2017-04-14T01:39:34.983Z,1007.03
2017-04-14T01:40:44.507Z,1007.01
2017-04-14T01:41:53.464Z,1006.96
2017-04-14T01:43:02.414Z,1006.9
2017-04-14T01:44:11.376Z,1006.92
2017-04-14T01:45:20.330Z,1006.97
2017-04-14T01:46:29.581Z,1006.99
2017-04-14T01:47:38.860Z,1006.94
2017-04-14T01:48:47.814Z,1007
2017-04-14T01:49:56.770Z,1007.04
2017-04-14T01:51:05.732Z,1007.07
2017-04-14T01:52:14.991Z,1007.03
2017-04-14T01:53:23.945Z,1007.04
2017-04-14T01:54:32.911Z,1007.02
2017-04-14T01:55:41.872Z,1007.06
2017-04-14T01:56:50.828Z,1007.03
2017-04-14T01:58:00.031Z,1006.99
2017-04-14T01:59:08.984Z,1007.01
2017-04-14T02:00:17.941Z,1007.01
2017-04-14T02:01:26.903Z,1007
2017-04-14T02:02:35.859Z,1006.99
2017-04-14T02:03:45.064Z,1007.04
2017-04-14T02:04:54.021Z,1007.04
2017-04-14T02:06:02.975Z,1007
2017-04-14T02:07:12.249Z,1007.05
2017-04-14T02:08:21.198Z,1007.05
2017-04-14T02:09:30.409Z,1007.03
2017-04-14T02:10:39.449Z,1007.06
2017-04-14T02:11:48.402Z,1007.09
2017-04-14T02:12:57.685Z,1007.03
2017-04-14T02:14:06.640Z,1007.11
2017-04-14T02:15:15.849Z,1007.04
2017-04-14T02:16:24.816Z,1007.03
2017-04-14T02:17:33.854Z,1007.06
2017-04-14T02:18:43.148Z,1007
2017-04-14T02:19:52.195Z,1007
2017-04-14T02:21:01.447Z,1007
2017-04-14T02:22:10.398Z,1006.95
2017-04-14T02:23:19.354Z,1006.96
2017-04-14T02:24:28.310Z,1006.93
2017-04-14T02:25:37.266Z,1006.97
2017-04-14T02:26:46.470Z,1006.99
2017-04-14T02:27:55.423Z,1007
2017-04-14T02:29:04.371Z,1007.01
2017-04-14T02:30:13.321Z,1007.02
2017-04-14T02:31:22.275Z,1007.02
2017-04-14T02:32:31.477Z,1007.08
2017-04-14T02:33:40.425Z,1007
2017-04-14T02:34:49.378Z,1007.03
2017-04-14T02:35:58.328Z,1007.04
2017-04-14T02:37:07.276Z,1007.02
2017-04-14T02:38:16.477Z,1007.05
2017-04-14T02:39:25.431Z,1007.02
2017-04-14T02:40:34.391Z,1007.03
2017-04-14T02:41:43.349Z,1007.04
2017-04-14T02:42:52.366Z,1007.02
2017-04-14T02:44:01.584Z,1007
2017-04-14T02:45:10.543Z,1007.03
2017-04-14T02:46:19.496Z,1007.05
2017-04-14T02:47:28.444Z,1007.05
2017-04-14T02:48:37.399Z,1007.03
2017-04-14T02:49:46.602Z,1007.05
2017-04-14T02:50:55.552Z,1007.04
2017-04-14T02:52:04.513Z,1007.08
2017-04-14T02:53:13.461Z,1007.06
2017-04-14T02:54:22.501Z,1007.11
2017-04-14T02:55:31.757Z,1007.1
2017-04-14T02:56:40.713Z,1007.08
2017-04-14T02:57:49.665Z,1007.11
2017-04-14T02:58:58.625Z,1007.11
2017-04-14T03:00:07.667Z,1007.07
2017-04-14T03:01:16.924Z,1007.13
2017-04-14T03:02:25.875Z,1007.11
2017-04-14T03:03:34.875Z,1007.09
2017-04-14T03:04:43.829Z,1007.12
2017-04-14T03:05:52.781Z,1007.15
2017-04-14T03:07:01.987Z,1007.09
2017-04-14T03:08:10.937Z,1007.13
2017-04-14T03:09:19.885Z,1007.18
2017-04-14T03:10:28.837Z,1007.18
2017-04-14T03:11:37.789Z,1007.16
2017-04-14T03:12:46.994Z,1007.16
2017-04-14T03:13:55.952Z,1007.13
2017-04-14T03:15:04.996Z,1007.14
2017-04-14T03:16:13.953Z,1007.17
2017-04-14T03:17:22.905Z,1007.16
2017-04-14T03:18:32.154Z,1007.16
2017-04-14T03:19:41.105Z,1007.15
2017-04-14T03:20:50.054Z,1007.19
2017-04-14T03:21:59.044Z,1007.2
2017-04-14T03:23:07.997Z,1007.17
2017-04-14T03:24:17.199Z,1007.16
2017-04-14T03:25:26.486Z,1007.19
2017-04-14T03:26:35.763Z,1007.25
2017-04-14T03:27:44.714Z,1007.19
2017-04-14T03:28:53.665Z,1007.23
2017-04-14T03:30:02.870Z,1007.23
2017-04-14T03:31:11.816Z,1007.2
2017-04-14T03:32:20.767Z,1007.26
2017-04-14T03:33:29.721Z,1007.27
2017-04-14T03:34:39.020Z,1007.22
2017-04-14T03:35:48.223Z,1007.26
2017-04-14T03:36:57.185Z,1007.24
2017-04-14T03:38:06.140Z,1007.26
2017-04-14T03:39:15.088Z,1007.25
2017-04-14T03:40:24.051Z,1007.26
2017-04-14T03:41:33.306Z,1007.26
2017-04-14T03:42:42.581Z,1007.22
2017-04-14T03:43:51.531Z,1007.2
2017-04-14T03:45:00.484Z,1007.23
2017-04-14T03:46:09.524Z,1007.22
2017-04-14T03:47:18.724Z,1007.24
2017-04-14T03:48:27.719Z,1007.28
2017-04-14T03:49:36.672Z,1007.24
2017-04-14T03:50:45.627Z,1007.24
2017-04-14T03:51:54.582Z,1007.28
2017-04-14T03:53:03.786Z,1007.31
2017-04-14T03:54:13.068Z,1007.31
2017-04-14T03:55:22.021Z,1007.31
2017-04-14T03:56:30.979Z,1007.31
2017-04-14T03:57:39.938Z,1007.39
2017-04-14T03:58:49.141Z,1007.34
2017-04-14T03:59:58.103Z,1007.37
2017-04-14T04:01:07.056Z,1007.37
2017-04-14T04:02:16.001Z,1007.39
2017-04-14T04:03:24.968Z,1007.42
2017-04-14T04:04:34.178Z,1007.38
2017-04-14T04:05:43.130Z,1007.41
2017-04-14T04:06:52.080Z,1007.48
2017-04-14T04:08:01.035Z,1007.45
2017-04-14T04:09:09.984Z,1007.41
2017-04-14T04:10:19.194Z,1007.47
2017-04-14T04:11:28.142Z,1007.45
2017-04-14T04:12:37.094Z,1007.46
2017-04-14T04:13:46.101Z,1007.48
2017-04-14T04:14:55.054Z,1007.46
2017-04-14T04:16:04.267Z,1007.49
2017-04-14T04:17:13.219Z,1007.54
2017-04-14T04:18:22.169Z,1007.5
2017-04-14T04:19:31.122Z,1007.51
2017-04-14T04:20:40.070Z,1007.54
2017-04-14T04:21:49.277Z,1007.56
2017-04-14T04:22:58.356Z,1007.55
2017-04-14T04:24:07.310Z,1007.52
2017-04-14T04:25:16.265Z,1007.47
2017-04-14T04:26:25.216Z,1007.51
2017-04-14T04:27:34.424Z,1007.5
2017-04-14T04:28:43.384Z,1007.51
2017-04-14T04:29:52.337Z,1007.48
2017-04-14T04:31:01.299Z,1007.5
2017-04-14T04:32:10.252Z,1007.5
2017-04-14T04:33:19.456Z,1007.48
2017-04-14T04:34:28.738Z,1007.5
2017-04-14T04:35:37.684Z,1007.51
2017-04-14T04:36:46.640Z,1007.47
2017-04-14T04:37:55.635Z,1007.52
2017-04-14T04:39:05.161Z,1007.52
2017-04-14T04:40:14.111Z,1007.56
2017-04-14T04:41:23.474Z,1007.55
2017-04-14T04:42:32.422Z,1007.55
2017-04-14T04:43:41.370Z,1007.59
2017-04-14T04:44:50.571Z,1007.65
2017-04-14T04:45:59.532Z,1007.65
2017-04-14T04:47:08.817Z,1007.64
2017-04-14T04:48:17.766Z,1007.64
2017-04-14T04:49:26.722Z,1007.7
2017-04-14T04:50:35.924Z,1007.71
2017-04-14T04:51:44.877Z,1007.75
2017-04-14T04:52:53.830Z,1007.8
2017-04-14T04:54:02.873Z,1007.77
2017-04-14T04:55:11.877Z,1007.83
2017-04-14T04:56:21.079Z,1007.85
2017-04-14T04:57:30.038Z,1007.86
2017-04-14T04:58:38.994Z,1007.83
2017-04-14T04:59:47.945Z,1007.88
2017-04-14T05:00:56.901Z,1007.88
2017-04-14T05:02:06.113Z,1007.85
2017-04-14T05:03:15.393Z,1007.88
2017-04-14T05:04:24.344Z,1007.85
2017-04-14T05:05:33.296Z,1007.91
2017-04-14T05:06:42.248Z,1007.93
2017-04-14T05:07:51.448Z,1007.94
2017-04-14T05:09:00.399Z,1008
2017-04-14T05:10:09.432Z,1008.01
2017-04-14T05:11:18.386Z,1007.99
2017-04-14T05:12:27.345Z,1008.02
2017-04-14T05:13:36.544Z,1008.03
2017-04-14T05:14:45.502Z,1007.98
2017-04-14T05:15:54.467Z,1008.02
2017-04-14T05:17:03.421Z,1007.96
2017-04-14T05:18:12.377Z,1008.03
2017-04-14T05:19:21.582Z,1008.05
2017-04-14T05:20:30.536Z,1008.07
2017-04-14T05:21:39.579Z,1008.12
2017-04-14T05:22:48.534Z,1008.04
2017-04-14T05:23:57.498Z,1008.07
2017-04-14T05:25:06.710Z,1008.05
2017-04-14T05:26:15.664Z,1008.1
2017-04-14T05:27:24.614Z,1008.09
2017-04-14T05:28:33.565Z,1008.09
2017-04-14T05:29:42.516Z,1008.1
2017-04-14T05:30:51.716Z,1008.1
2017-04-14T05:32:00.674Z,1008.13
2017-04-14T05:33:09.622Z,1008.16
2017-04-14T05:34:18.572Z,1008.13
2017-04-14T05:35:27.609Z,1008.19
2017-04-14T05:36:36.820Z,1008.21
2017-04-14T05:37:45.774Z,1008.17
2017-04-14T05:38:54.722Z,1008.14
2017-04-14T05:40:03.675Z,1008.2
2017-04-14T05:41:12.637Z,1008.13
2017-04-14T05:42:21.889Z,1008.15
2017-04-14T05:43:30.929Z,1008.16
2017-04-14T05:44:39.886Z,1008.16
2017-04-14T05:45:48.840Z,1008.18
2017-04-14T05:46:57.793Z,1008.18
2017-04-14T05:48:06.997Z,1008.23
2017-04-14T05:49:16.277Z,1008.19
2017-04-14T05:50:25.231Z,1008.27
2017-04-14T05:51:34.183Z,1008.21
2017-04-14T05:52:43.144Z,1008.2
2017-04-14T05:53:52.356Z,1008.24
2017-04-14T05:55:01.308Z,1008.26
2017-04-14T05:56:10.256Z,1008.32
2017-04-14T05:57:19.527Z,1008.19
2017-04-14T05:58:28.480Z,1008.22
2017-04-14T05:59:37.741Z,1008.25
2017-04-14T06:00:46.693Z,1008.31
2017-04-14T06:01:55.645Z,1008.28
2017-04-14T06:03:04.595Z,1008.27
2017-04-14T06:04:13.549Z,1008.22
2017-04-14T06:05:22.754Z,1008.27
2017-04-14T06:06:31.711Z,1008.3
2017-04-14T06:07:40.760Z,1008.3
2017-04-14T06:08:49.722Z,1008.34
2017-04-14T06:09:58.669Z,1008.34
2017-04-14T06:11:07.971Z,1008.28
2017-04-14T06:12:16.921Z,1008.36
2017-04-14T06:13:25.868Z,1008.36
2017-04-14T06:14:34.913Z,1008.38
2017-04-14T06:15:43.950Z,1008.31
2017-04-14T06:16:53.157Z,1008.26
2017-04-14T06:18:02.116Z,1008.27
2017-04-14T06:19:11.162Z,1008.31
2017-04-14T06:20:20.119Z,1008.32
2017-04-14T06:21:29.074Z,1008.3
2017-04-14T06:22:38.273Z,1008.31
2017-04-14T06:23:47.231Z,1008.3
2017-04-14T06:24:56.191Z,1008.28
2017-04-14T06:26:05.160Z,1008.33
2017-04-14T06:27:14.111Z,1008.24
2017-04-14T06:28:23.315Z,1008.32
2017-04-14T06:29:32.277Z,1008.25
2017-04-14T06:30:41.226Z,1008.24
2017-04-14T06:31:50.174Z,1008.27
2017-04-14T06:32:59.127Z,1008.32
2017-04-14T06:34:08.329Z,1008.32
2017-04-14T06:35:17.282Z,1008.37
2017-04-14T06:36:26.553Z,1008.35
2017-04-14T06:37:35.509Z,1008.38
2017-04-14T06:38:44.548Z,1008.36
2017-04-14T06:39:53.757Z,1008.42
2017-04-14T06:41:02.798Z,1008.45
2017-04-14T06:42:11.751Z,1008.41
2017-04-14T06:43:20.720Z,1008.48
2017-04-14T06:44:30.003Z,1008.42
2017-04-14T06:45:39.207Z,1008.57
2017-04-14T06:46:48.160Z,1008.51
2017-04-14T06:47:57.112Z,1008.54
2017-04-14T06:49:06.157Z,1008.52
2017-04-14T06:50:15.121Z,1008.54
2017-04-14T06:51:24.328Z,1008.55
2017-04-14T06:52:33.281Z,1008.54
2017-04-14T06:53:42.241Z,1008.63
2017-04-14T06:54:51.193Z,1008.6
2017-04-14T06:56:00.148Z,1008.53
2017-04-14T06:57:09.350Z,1008.57
2017-04-14T06:58:18.302Z,1008.54
2017-04-14T06:59:27.256Z,1008.6
2017-04-14T07:00:36.206Z,1008.62
2017-04-14T07:01:45.241Z,1008.66
2017-04-14T07:02:54.445Z,1008.62
2017-04-14T07:04:03.412Z,1008.66
2017-04-14T07:05:12.368Z,1008.64
2017-04-14T07:06:21.332Z,1008.67
2017-04-14T07:07:30.285Z,1008.64
2017-04-14T07:08:39.506Z,1008.64
2017-04-14T07:09:48.456Z,1008.57
2017-04-14T07:10:57.409Z,1008.59
2017-04-14T07:12:06.695Z,1008.58
2017-04-14T07:13:15.651Z,1008.59
2017-04-14T07:14:24.948Z,1008.6
2017-04-14T07:15:33.991Z,1008.67
2017-04-14T07:16:43.032Z,1008.64
2017-04-14T07:17:51.993Z,1008.65
2017-04-14T07:19:00.954Z,1008.68
2017-04-14T07:20:10.158Z,1008.62
2017-04-14T07:21:19.113Z,1008.67
2017-04-14T07:22:28.064Z,1008.64
2017-04-14T07:23:37.120Z,1008.68
2017-04-14T07:24:46.077Z,1008.74
2017-04-14T07:25:55.282Z,1008.67
2017-04-14T07:27:04.235Z,1008.69
2017-04-14T07:28:13.204Z,1008.71
2017-04-14T07:29:22.164Z,1008.7
2017-04-14T07:30:31.444Z,1008.76
2017-04-14T07:31:40.652Z,1008.77
2017-04-14T07:32:49.613Z,1008.76
2017-04-14T07:33:58.576Z,1008.79
2017-04-14T07:35:07.529Z,1008.83
2017-04-14T07:36:16.805Z,1008.79
2017-04-14T07:37:26.181Z,1008.85
2017-04-14T07:38:35.148Z,1008.78
2017-04-14T07:39:44.102Z,1008.84
2017-04-14T07:40:53.061Z,1008.89
2017-04-14T07:42:02.016Z,1008.83
2017-04-14T07:43:11.565Z,1008.88
2017-04-14T07:44:20.521Z,1008.92
2017-04-14T07:45:29.477Z,1008.85
2017-04-14T07:46:38.749Z,1008.89
2017-04-14T07:47:47.796Z,1008.97
2017-04-14T07:48:57.006Z,1008.88
2017-04-14T07:50:05.963Z,1008.94
2017-04-14T07:51:14.963Z,1008.94
2017-04-14T07:52:23.922Z,1009
2017-04-14T07:53:32.881Z,1008.95
2017-04-14T07:54:42.087Z,1008.94
2017-04-14T07:55:51.126Z,1008.96
2017-04-14T07:57:00.081Z,1009.02
2017-04-14T07:58:09.036Z,1009.05
2017-04-14T07:59:17.990Z,1009.05
2017-04-14T08:00:27.204Z,1009.06
2017-04-14T08:01:36.162Z,1009.05
2017-04-14T08:02:45.116Z,1009.01
2017-04-14T08:03:54.163Z,1009.02
2017-04-14T08:05:03.114Z,1009.02
2017-04-14T08:06:12.409Z,1009.14
2017-04-14T08:07:21.368Z,1009.12
2017-04-14T08:08:30.327Z,1009.11
2017-04-14T08:09:39.279Z,1009.25
2017-04-14T08:10:48.231Z,1009.23
2017-04-14T08:11:57.444Z,1009.21
2017-04-14T08:13:06.498Z,1009.25
2017-04-14T08:14:15.462Z,1009.22
2017-04-14T08:15:24.418Z,1009.2
2017-04-14T08:16:33.369Z,1009.26
2017-04-14T08:17:42.577Z,1009.32
2017-04-14T08:18:51.541Z,1009.34
2017-04-14T08:20:00.500Z,1009.32
2017-04-14T08:21:09.455Z,1009.33
2017-04-14T08:22:18.412Z,1009.26
2017-04-14T08:23:27.614Z,1009.29
2017-04-14T08:24:36.574Z,1009.29
2017-04-14T08:25:45.527Z,1009.33
2017-04-14T08:26:54.479Z,1009.37
2017-04-14T08:28:03.441Z,1009.36
2017-04-14T08:29:12.731Z,1009.37
2017-04-14T08:30:21.784Z,1009.35
2017-04-14T08:31:30.915Z,1009.35
2017-04-14T08:32:39.954Z,1009.36
2017-04-14T08:33:48.917Z,1009.35
2017-04-14T08:34:58.128Z,1009.37
2017-04-14T08:36:07.453Z,1009.34
2017-04-14T08:37:16.407Z,1009.39
2017-04-14T08:38:25.371Z,1009.39
2017-04-14T08:39:34.385Z,1009.33
2017-04-14T08:40:43.644Z,1009.39
2017-04-14T08:41:52.603Z,1009.45
2017-04-14T08:43:01.562Z,1009.44
2017-04-14T08:44:10.521Z,1009.46
2017-04-14T08:45:19.470Z,1009.45
2017-04-14T08:46:28.676Z,1009.47
2017-04-14T08:47:37.631Z,1009.41
2017-04-14T08:48:46.592Z,1009.45
2017-04-14T08:49:55.553Z,1009.51
2017-04-14T08:51:04.837Z,1009.49
2017-04-14T08:52:14.135Z,1009.48
2017-04-14T08:53:23.089Z,1009.53
2017-04-14T08:54:32.052Z,1009.43
2017-04-14T08:55:41.010Z,1009.5
2017-04-14T08:56:49.964Z,1009.51
2017-04-14T08:57:59.166Z,1009.43
2017-04-14T08:59:08.126Z,1009.44
2017-04-14T09:00:17.097Z,1009.47
2017-04-14T09:01:26.059Z,1009.54
2017-04-14T09:02:35.011Z,1009.47
2017-04-14T09:03:44.222Z,1009.45
2017-04-14T09:04:53.181Z,1009.43
2017-04-14T09:06:02.139Z,1009.45
2017-04-14T09:07:11.435Z,1009.42
2017-04-14T09:08:20.400Z,1009.37
2017-04-14T09:09:29.695Z,1009.37
2017-04-14T09:10:38.649Z,1009.41
2017-04-14T09:11:47.605Z,1009.4
2017-04-14T09:12:56.561Z,1009.39
2017-04-14T09:14:05.536Z,1009.38
2017-04-14T09:15:14.926Z,1009.35
2017-04-14T09:16:23.891Z,1009.34
2017-04-14T09:17:32.845Z,1009.39
2017-04-14T09:18:41.804Z,1009.38
2017-04-14T09:19:50.770Z,1009.29
2017-04-14T09:20:59.982Z,1009.37
2017-04-14T09:22:08.935Z,1009.36
2017-04-14T09:23:17.978Z,1009.36
2017-04-14T09:24:26.937Z,1009.36
2017-04-14T09:25:35.906Z,1009.44
2017-04-14T09:26:45.444Z,1009.36
2017-04-14T09:27:54.504Z,1009.36
2017-04-14T09:29:03.540Z,1009.32
2017-04-14T09:30:12.500Z,1009.3
2017-04-14T09:31:21.458Z,1009.25
2017-04-14T09:32:30.666Z,1009.25
2017-04-14T09:33:39.624Z,1009.17
2017-04-14T09:34:48.596Z,1009.21
2017-04-14T09:35:57.560Z,1009.25
2017-04-14T09:37:06.514Z,1009.26
2017-04-14T09:38:15.718Z,1009.32
2017-04-14T09:39:24.675Z,1009.34
2017-04-14T09:40:33.628Z,1009.25
2017-04-14T09:41:42.672Z,1009.29
2017-04-14T09:42:51.628Z,1009.32
2017-04-14T09:44:00.837Z,1009.19
2017-04-14T09:45:09.792Z,1009.29
2017-04-14T09:46:18.755Z,1009.23
2017-04-14T09:47:27.713Z,1009.3
2017-04-14T09:48:36.675Z,1009.3
2017-04-14T09:49:45.888Z,1009.27
2017-04-14T09:50:54.846Z,1009.24
2017-04-14T09:52:03.795Z,1009.3
2017-04-14T09:53:12.756Z,1009.24
2017-04-14T09:54:21.720Z,1009.25
2017-04-14T09:55:30.927Z,1009.24
2017-04-14T09:56:39.886Z,1009.31
2017-04-14T09:57:48.849Z,1009.34
2017-04-14T09:58:57.807Z,1009.32
2017-04-14T10:00:06.855Z,1009.3
2017-04-14T10:01:16.064Z,1009.36
2017-04-14T10:02:25.073Z,1009.35
2017-04-14T10:03:34.117Z,1009.36
2017-04-14T10:04:43.077Z,1009.41
2017-04-14T10:05:52.033Z,1009.4
2017-04-14T10:07:01.244Z,1009.41
2017-04-14T10:08:10.210Z,1009.27
2017-04-14T10:09:19.173Z,1009.36
2017-04-14T10:10:28.134Z,1009.41
2017-04-14T10:11:37.089Z,1009.36
2017-04-14T10:12:46.296Z,1009.36
2017-04-14T10:13:55.256Z,1009.35
2017-04-14T10:15:04.234Z,1009.35
2017-04-14T10:16:13.193Z,1009.31
2017-04-14T10:17:22.233Z,1009.33
2017-04-14T10:18:31.453Z,1009.27
2017-04-14T10:19:40.743Z,1009.27
2017-04-14T10:20:49.700Z,1009.24
2017-04-14T10:21:58.977Z,1009.27
2017-04-14T10:23:07.943Z,1009.3
2017-04-14T10:24:17.150Z,1009.31
2017-04-14T10:25:26.113Z,1009.37
2017-04-14T10:26:35.069Z,1009.35
2017-04-14T10:27:44.022Z,1009.34
2017-04-14T10:28:52.982Z,1009.34
2017-04-14T10:30:02.204Z,1009.31
2017-04-14T10:31:11.160Z,1009.31
2017-04-14T10:32:20.118Z,1009.3
2017-04-14T10:33:29.487Z,1009.35
2017-04-14T10:34:38.488Z,1009.3
2017-04-14T10:35:47.791Z,1009.27
2017-04-14T10:36:56.751Z,1009.28
2017-04-14T10:38:05.792Z,1009.25
2017-04-14T10:39:14.761Z,1009.3
2017-04-14T10:40:23.721Z,1009.25
2017-04-14T10:41:33.258Z,1009.3
2017-04-14T10:42:42.306Z,1009.32
2017-04-14T10:43:51.274Z,1009.25
2017-04-14T10:45:00.232Z,1009.31
2017-04-14T10:46:09.514Z,1009.41
2017-04-14T10:47:18.726Z,1009.32
2017-04-14T10:48:27.691Z,1009.3
2017-04-14T10:49:36.652Z,1009.37
2017-04-14T10:50:45.609Z,1009.34
2017-04-14T10:51:54.571Z,1009.32
2017-04-14T10:53:03.782Z,1009.34
2017-04-14T10:54:12.742Z,1009.34
2017-04-14T10:55:21.705Z,1009.34
2017-04-14T10:56:30.661Z,1009.35
2017-04-14T10:57:39.619Z,1009.34
2017-04-14T10:58:48.835Z,1009.33
2017-04-14T10:59:57.799Z,1009.29
2017-04-14T11:01:06.759Z,1009.23
2017-04-14T11:02:15.758Z,1009.23
2017-04-14T11:03:24.723Z,1009.16
2017-04-14T11:04:33.935Z,1009.21
2017-04-14T11:05:42.894Z,1009.27
2017-04-14T11:06:51.852Z,1009.19
2017-04-14T11:08:00.810Z,1009.23
2017-04-14T11:09:09.865Z,1009.23
2017-04-14T11:10:19.082Z,1009.26
2017-04-14T11:11:28.037Z,1009.23
2017-04-14T11:12:36.997Z,1009.24
2017-04-14T11:13:45.963Z,1009.13
2017-04-14T11:14:54.930Z,1009.11
2017-04-14T11:16:04.148Z,1009.14
2017-04-14T11:17:13.108Z,1009.1
2017-04-14T11:18:22.155Z,1009.13
2017-04-14T11:19:31.287Z,1009.03
2017-04-14T11:20:40.243Z,1009.1
2017-04-14T11:21:49.454Z,1009.02
2017-04-14T11:22:58.416Z,1009.01
2017-04-14T11:24:07.462Z,1009.04
2017-04-14T11:25:16.429Z,1009.09
2017-04-14T11:26:25.391Z,1008.99
2017-04-14T11:27:34.603Z,1009.08
2017-04-14T11:28:43.654Z,1009.09
2017-04-14T11:29:52.618Z,1009.07
2017-04-14T11:31:01.903Z,1009.03
2017-04-14T11:32:10.861Z,1009.13
2017-04-14T11:33:20.067Z,1009.15
2017-04-14T11:34:29.035Z,1009.09
2017-04-14T11:35:37.988Z,1009.04
2017-04-14T11:36:46.945Z,1009.06
2017-04-14T11:37:55.903Z,1009.06
2017-04-14T11:39:05.107Z,1009.03
2017-04-14T11:40:14.155Z,1009.06
2017-04-14T11:41:23.115Z,1009.07
2017-04-14T11:42:32.073Z,1009.01
2017-04-14T11:43:41.368Z,1009.07
2017-04-14T11:44:50.581Z,1009.02
2017-04-14T11:46:03.691Z,1009.05
2017-04-14T11:47:12.652Z,1008.97
2017-04-14T11:48:21.618Z,1008.96
2017-04-14T11:49:30.580Z,1009.02
2017-04-14T11:50:39.968Z,1008.98
2017-04-14T11:51:48.921Z,1008.97
2017-04-14T11:52:57.878Z,1008.96
2017-04-14T11:54:07.566Z,1008.99
2017-04-14T11:55:16.535Z,1008.94
2017-04-14T11:56:25.828Z,1008.98
2017-04-14T11:57:34.783Z,1008.94
2017-04-14T11:58:43.746Z,1009.02
2017-04-14T11:59:52.707Z,1008.93
2017-04-14T12:01:01.663Z,1008.92
2017-04-14T12:02:10.884Z,1008.94
2017-04-14T12:03:19.847Z,1008.92
2017-04-14T12:04:29.138Z,1008.93
2017-04-14T12:05:38.104Z,1008.92
2017-04-14T12:06:47.062Z,1008.88
2017-04-14T12:07:56.610Z,1008.86
2017-04-14T12:09:05.577Z,1008.94
2017-04-14T12:10:14.544Z,1008.96
2017-04-14T12:11:23.505Z,1008.84
2017-04-14T12:12:32.465Z,1008.92
2017-04-14T12:13:41.680Z,1008.94
2017-04-14T12:14:50.638Z,1008.94
2017-04-14T12:15:59.604Z,1008.83
2017-04-14T12:17:08.564Z,1008.88
2017-04-14T12:18:17.530Z,1008.87
2017-04-14T12:19:26.748Z,1008.85
2017-04-14T12:20:35.714Z,1008.83
2017-04-14T12:21:44.667Z,1008.85
2017-04-14T12:22:53.639Z,1008.9
2017-04-14T12:24:02.611Z,1008.91
2017-04-14T12:25:11.833Z,1008.92
2017-04-14T12:26:21.538Z,1008.9
2017-04-14T12:27:30.501Z,1008.85
2017-04-14T12:28:39.467Z,1008.85
2017-04-14T12:29:48.432Z,1008.84
2017-04-14T12:30:57.636Z,1008.91
2017-04-14T12:32:06.593Z,1008.83
2017-04-14T12:33:15.552Z,1008.93
2017-04-14T12:34:24.518Z,1008.92
2017-04-14T12:35:33.481Z,1008.94
2017-04-14T12:36:42.696Z,1008.92
2017-04-14T12:37:51.663Z,1008.89
2017-04-14T12:39:00.631Z,1008.84
2017-04-14T12:40:09.587Z,1008.83
2017-04-14T12:41:18.547Z,1008.94
2017-04-14T12:42:27.755Z,1008.94
2017-04-14T12:43:36.712Z,1008.87
2017-04-14T12:44:45.674Z,1008.86
2017-04-14T12:45:54.639Z,1008.85
2017-04-14T12:47:03.602Z,1008.81
2017-04-14T12:48:12.815Z,1008.86
2017-04-14T12:49:21.775Z,1008.83
2017-04-14T12:50:31.068Z,1008.94
2017-04-14T12:51:40.021Z,1008.91
2017-04-14T12:52:48.987Z,1008.88
2017-04-14T12:53:58.197Z,1008.93
2017-04-14T12:55:07.157Z,1008.88
2017-04-14T12:56:16.112Z,1008.84
2017-04-14T12:57:25.069Z,1008.83
2017-04-14T12:58:34.033Z,1008.8
2017-04-14T12:59:43.257Z,1008.83
2017-04-14T13:00:52.217Z,1008.8
2017-04-14T13:02:01.177Z,1008.82
2017-04-14T13:03:10.139Z,1008.73
2017-04-14T13:04:19.103Z,1008.77
2017-04-14T13:05:28.325Z,1008.78
2017-04-14T13:06:37.283Z,1008.77
2017-04-14T13:07:46.247Z,1008.75
2017-04-14T13:08:55.219Z,1008.73
2017-04-14T13:10:04.292Z,1008.76
2017-04-14T13:11:13.507Z,1008.74
2017-04-14T13:12:22.793Z,1008.72
2017-04-14T13:13:31.755Z,1008.71
2017-04-14T13:14:40.722Z,1008.7
2017-04-14T13:15:49.676Z,1008.71
2017-04-14T13:16:58.892Z,1008.72
2017-04-14T13:18:07.851Z,1008.68
2017-04-14T13:19:16.897Z,1008.68
2017-04-14T13:20:25.865Z,1008.65
2017-04-14T13:21:34.827Z,1008.65
2017-04-14T13:22:44.035Z,1008.65
2017-04-14T13:23:52.997Z,1008.65
2017-04-14T13:25:01.959Z,1008.63
2017-04-14T13:26:11.002Z,1008.68
2017-04-14T13:27:19.968Z,1008.7
2017-04-14T13:28:29.229Z,1008.63
2017-04-14T13:29:38.195Z,1008.63
2017-04-14T13:30:47.890Z,1008.67
2017-04-14T13:31:56.844Z,1008.57
2017-04-14T13:33:05.803Z,1008.56
2017-04-14T13:34:15.010Z,1008.68
2017-04-14T13:35:24.057Z,1008.68
2017-04-14T13:36:33.017Z,1008.6
2017-04-14T13:37:42.299Z,1008.6
2017-04-14T13:38:51.394Z,1008.66
2017-04-14T13:40:00.601Z,1008.52
2017-04-14T13:41:09.645Z,1008.53
2017-04-14T13:42:18.604Z,1008.56
2017-04-14T13:43:27.563Z,1008.56
2017-04-14T13:44:36.704Z,1008.55
2017-04-14T13:45:46.241Z,1008.49
2017-04-14T13:46:55.207Z,1008.52
2017-04-14T13:48:04.164Z,1008.53
2017-04-14T13:49:13.123Z,1008.54
2017-04-14T13:50:22.084Z,1008.52
2017-04-14T13:51:31.290Z,1008.45
2017-04-14T13:52:40.257Z,1008.47
2017-04-14T13:53:49.308Z,1008.43
2017-04-14T13:54:58.275Z,1008.42
2017-04-14T13:56:07.240Z,1008.47
2017-04-14T13:57:16.465Z,1008.45
2017-04-14T13:58:25.510Z,1008.45